sensor_id;sensor_type;location;lat;lon;timestamp;temperature;humidity
7331;DHT22;3706;49.198;7.064;2023-07-28T00:01:59;17.20;99.90
7331;DHT22;3706;49.198;7.064;2023-07-28T00:04:25;17.20;99.90
7331;DHT22;3706;49.198;7.064;2023-07-28T00:06:52;17.20;99.90
7331;DHT22;3706;49.198;7.064;2023-07-28T00:09:19;17.20;99.90
7331;DHT22;3706;49.198;7.064;2023-07-28T00:11:48;17.20;99.90
7331;DHT22;3706;49.198;7.064;2023-07-28T00:14:15;17.20;99.90
7331;DHT22;3706;49.198;7.064;2023-07-28T00:16:43;17.20;99.90
7331;DHT22;3706;49.198;7.064;2023-07-28T00:19:10;17.20;99.90
7331;DHT22;3706;49.198;7.064;2023-07-28T00:21:37;17.20;99.90
7331;DHT22;3706;49.198;7.064;2023-07-28T00:24:05;17.20;99.90
7331;DHT22;3706;49.198;7.064;2023-07-28T00:26:31;17.20;99.90
7331;DHT22;3706;49.198;7.064;2023-07-28T00:28:58;17.20;99.90
7331;DHT22;3706;49.198;7.064;2023-07-28T00:31:25;17.20;99.90
7331;DHT22;3706;49.198;7.064;2023-07-28T00:33:54;17.10;99.90
7331;DHT22;3706;49.198;7.064;2023-07-28T00:36:20;17.10;99.90
7331;DHT22;3706;49.198;7.064;2023-07-28T00:38:47;17.10;99.90
7331;DHT22;3706;49.198;7.064;2023-07-28T00:41:14;17.10;99.90
7331;DHT22;3706;49.198;7.064;2023-07-28T00:43:41;17.10;99.90
7331;DHT22;3706;49.198;7.064;2023-07-28T00:46:08;17.10;99.90
7331;DHT22;3706;49.198;7.064;2023-07-28T00:48:36;17.10;99.90
7331;DHT22;3706;49.198;7.064;2023-07-28T00:51:05;17.10;99.90
7331;DHT22;3706;49.198;7.064;2023-07-28T00:53:32;17.10;99.90
7331;DHT22;3706;49.198;7.064;2023-07-28T00:56:00;17.10;99.90
7331;DHT22;3706;49.198;7.064;2023-07-28T00:58:28;17.10;99.90
7331;DHT22;3706;49.198;7.064;2023-07-28T01:00:54;17.10;99.90
7331;DHT22;3706;49.198;7.064;2023-07-28T01:03:22;17.10;99.90
7331;DHT22;3706;49.198;7.064;2023-07-28T01:05:55;17.10;99.90
7331;DHT22;3706;49.198;7.064;2023-07-28T01:08:29;17.10;99.90
7331;DHT22;3706;49.198;7.064;2023-07-28T01:10:56;17.00;99.90
7331;DHT22;3706;49.198;7.064;2023-07-28T01:13:23;17.10;99.90
7331;DHT22;3706;49.198;7.064;2023-07-28T01:15:50;17.10;99.90
7331;DHT22;3706;49.198;7.064;2023-07-28T01:18:17;17.10;99.90
7331;DHT22;3706;49.198;7.064;2023-07-28T01:20:46;17.00;99.90
7331;DHT22;3706;49.198;7.064;2023-07-28T01:23:18;17.10;99.90
7331;DHT22;3706;49.198;7.064;2023-07-28T01:25:57;17.10;99.90
7331;DHT22;3706;49.198;7.064;2023-07-28T01:28:31;17.00;99.90
7331;DHT22;3706;49.198;7.064;2023-07-28T01:30:58;17.00;99.90
7331;DHT22;3706;49.198;7.064;2023-07-28T01:33:25;17.00;99.90
7331;DHT22;3706;49.198;7.064;2023-07-28T01:35:52;17.00;99.90
7331;DHT22;3706;49.198;7.064;2023-07-28T01:38:19;17.00;99.90
7331;DHT22;3706;49.198;7.064;2023-07-28T01:40:46;17.00;99.90
7331;DHT22;3706;49.198;7.064;2023-07-28T01:43:13;17.00;99.90
7331;DHT22;3706;49.198;7.064;2023-07-28T01:45:41;17.00;99.90
7331;DHT22;3706;49.198;7.064;2023-07-28T01:48:08;17.00;99.90
7331;DHT22;3706;49.198;7.064;2023-07-28T01:50:35;17.00;99.90
7331;DHT22;3706;49.198;7.064;2023-07-28T01:53:03;16.90;99.90
7331;DHT22;3706;49.198;7.064;2023-07-28T01:55:30;16.90;99.90
7331;DHT22;3706;49.198;7.064;2023-07-28T01:57:59;16.90;99.90
7331;DHT22;3706;49.198;7.064;2023-07-28T02:00:26;16.90;99.90
7331;DHT22;3706;49.198;7.064;2023-07-28T02:02:54;16.90;99.90
7331;DHT22;3706;49.198;7.064;2023-07-28T02:05:23;16.90;99.90
7331;DHT22;3706;49.198;7.064;2023-07-28T02:07:50;16.90;99.90
7331;DHT22;3706;49.198;7.064;2023-07-28T02:10:17;16.90;99.90
7331;DHT22;3706;49.198;7.064;2023-07-28T02:12:44;16.90;99.90
7331;DHT22;3706;49.198;7.064;2023-07-28T02:15:11;16.80;99.90
7331;DHT22;3706;49.198;7.064;2023-07-28T02:17:39;16.90;99.90
7331;DHT22;3706;49.198;7.064;2023-07-28T02:20:08;16.80;99.90
7331;DHT22;3706;49.198;7.064;2023-07-28T02:22:38;16.80;99.90
7331;DHT22;3706;49.198;7.064;2023-07-28T02:25:06;16.80;99.90
7331;DHT22;3706;49.198;7.064;2023-07-28T02:27:33;16.80;99.90
7331;DHT22;3706;49.198;7.064;2023-07-28T02:30:00;16.80;99.90
7331;DHT22;3706;49.198;7.064;2023-07-28T02:32:27;16.80;99.90
7331;DHT22;3706;49.198;7.064;2023-07-28T02:34:55;16.80;99.90
7331;DHT22;3706;49.198;7.064;2023-07-28T02:37:23;16.80;99.90
7331;DHT22;3706;49.198;7.064;2023-07-28T02:39:51;16.80;99.90
7331;DHT22;3706;49.198;7.064;2023-07-28T02:42:18;16.80;99.90
7331;DHT22;3706;49.198;7.064;2023-07-28T02:44:45;16.80;99.90
7331;DHT22;3706;49.198;7.064;2023-07-28T02:47:11;16.80;99.90
7331;DHT22;3706;49.198;7.064;2023-07-28T02:49:40;16.80;99.90
7331;DHT22;3706;49.198;7.064;2023-07-28T02:52:08;16.80;99.90
7331;DHT22;3706;49.198;7.064;2023-07-28T02:54:36;16.80;99.90
7331;DHT22;3706;49.198;7.064;2023-07-28T02:57:03;16.80;99.90
7331;DHT22;3706;49.198;7.064;2023-07-28T02:59:30;16.80;99.90
7331;DHT22;3706;49.198;7.064;2023-07-28T03:01:57;16.80;99.90
7331;DHT22;3706;49.198;7.064;2023-07-28T03:04:24;16.80;99.90
7331;DHT22;3706;49.198;7.064;2023-07-28T03:06:50;16.80;99.90
7331;DHT22;3706;49.198;7.064;2023-07-28T03:09:17;16.80;99.90
7331;DHT22;3706;49.198;7.064;2023-07-28T03:11:46;16.80;99.90
7331;DHT22;3706;49.198;7.064;2023-07-28T03:14:12;16.80;99.90
7331;DHT22;3706;49.198;7.064;2023-07-28T03:16:40;16.80;99.90
7331;DHT22;3706;49.198;7.064;2023-07-28T03:19:07;16.80;99.90
7331;DHT22;3706;49.198;7.064;2023-07-28T03:21:34;16.80;99.90
7331;DHT22;3706;49.198;7.064;2023-07-28T03:24:01;16.80;99.90
7331;DHT22;3706;49.198;7.064;2023-07-28T03:26:28;16.80;99.90
7331;DHT22;3706;49.198;7.064;2023-07-28T03:28:56;16.80;99.90
7331;DHT22;3706;49.198;7.064;2023-07-28T03:31:23;16.90;99.90
7331;DHT22;3706;49.198;7.064;2023-07-28T03:33:50;16.90;99.90
7331;DHT22;3706;49.198;7.064;2023-07-28T03:36:17;16.90;99.90
7331;DHT22;3706;49.198;7.064;2023-07-28T03:38:45;16.90;99.90
7331;DHT22;3706;49.198;7.064;2023-07-28T03:41:12;16.80;99.90
7331;DHT22;3706;49.198;7.064;2023-07-28T03:43:40;16.90;99.90
7331;DHT22;3706;49.198;7.064;2023-07-28T03:46:08;16.90;99.90
7331;DHT22;3706;49.198;7.064;2023-07-28T03:48:35;16.90;99.90
7331;DHT22;3706;49.198;7.064;2023-07-28T03:51:02;16.90;99.90
7331;DHT22;3706;49.198;7.064;2023-07-28T03:53:29;16.90;99.90
7331;DHT22;3706;49.198;7.064;2023-07-28T03:55:56;16.90;99.90
7331;DHT22;3706;49.198;7.064;2023-07-28T03:58:24;16.90;99.90
7331;DHT22;3706;49.198;7.064;2023-07-28T04:00:51;16.90;99.90
7331;DHT22;3706;49.198;7.064;2023-07-28T04:03:20;16.90;99.90
7331;DHT22;3706;49.198;7.064;2023-07-28T04:05:47;16.90;99.90
7331;DHT22;3706;49.198;7.064;2023-07-28T04:08:15;16.90;99.90
7331;DHT22;3706;49.198;7.064;2023-07-28T04:10:41;17.00;99.90
7331;DHT22;3706;49.198;7.064;2023-07-28T04:13:08;17.00;99.90
7331;DHT22;3706;49.198;7.064;2023-07-28T04:15:36;17.00;99.90
7331;DHT22;3706;49.198;7.064;2023-07-28T04:18:03;17.00;99.90
7331;DHT22;3706;49.198;7.064;2023-07-28T04:20:31;17.00;99.90
7331;DHT22;3706;49.198;7.064;2023-07-28T04:22:58;17.00;99.90
7331;DHT22;3706;49.198;7.064;2023-07-28T04:25:25;17.00;99.90
7331;DHT22;3706;49.198;7.064;2023-07-28T04:27:52;17.00;99.90
7331;DHT22;3706;49.198;7.064;2023-07-28T04:30:18;17.00;99.90
7331;DHT22;3706;49.198;7.064;2023-07-28T04:32:45;17.00;99.90
7331;DHT22;3706;49.198;7.064;2023-07-28T04:35:12;17.00;99.90
7331;DHT22;3706;49.198;7.064;2023-07-28T04:37:41;17.00;99.90
7331;DHT22;3706;49.198;7.064;2023-07-28T04:40:08;17.10;99.90
7331;DHT22;3706;49.198;7.064;2023-07-28T04:42:35;17.10;99.90
7331;DHT22;3706;49.198;7.064;2023-07-28T04:45:03;17.10;99.90
7331;DHT22;3706;49.198;7.064;2023-07-28T04:47:30;17.10;99.90
7331;DHT22;3706;49.198;7.064;2023-07-28T04:49:57;17.10;99.90
7331;DHT22;3706;49.198;7.064;2023-07-28T04:52:24;17.20;99.90
7331;DHT22;3706;49.198;7.064;2023-07-28T04:54:52;17.20;99.90
7331;DHT22;3706;49.198;7.064;2023-07-28T04:57:19;17.20;99.90
7331;DHT22;3706;49.198;7.064;2023-07-28T04:59:46;17.20;99.90
7331;DHT22;3706;49.198;7.064;2023-07-28T05:02:13;17.20;99.90
7331;DHT22;3706;49.198;7.064;2023-07-28T05:04:40;17.20;99.90
7331;DHT22;3706;49.198;7.064;2023-07-28T05:07:07;17.20;99.90
7331;DHT22;3706;49.198;7.064;2023-07-28T05:09:34;17.20;99.90
7331;DHT22;3706;49.198;7.064;2023-07-28T05:12:02;17.30;99.90
7331;DHT22;3706;49.198;7.064;2023-07-28T05:14:29;17.30;99.90
7331;DHT22;3706;49.198;7.064;2023-07-28T05:16:55;17.30;99.90
7331;DHT22;3706;49.198;7.064;2023-07-28T05:19:22;17.30;99.90
7331;DHT22;3706;49.198;7.064;2023-07-28T05:21:49;17.30;99.90
7331;DHT22;3706;49.198;7.064;2023-07-28T05:24:16;17.40;99.90
7331;DHT22;3706;49.198;7.064;2023-07-28T05:26:43;17.40;99.90
7331;DHT22;3706;49.198;7.064;2023-07-28T05:29:11;17.40;99.90
7331;DHT22;3706;49.198;7.064;2023-07-28T05:31:38;17.30;99.90
7331;DHT22;3706;49.198;7.064;2023-07-28T05:34:05;17.40;99.90
7331;DHT22;3706;49.198;7.064;2023-07-28T05:36:32;17.40;99.90
7331;DHT22;3706;49.198;7.064;2023-07-28T05:38:59;17.40;99.90
7331;DHT22;3706;49.198;7.064;2023-07-28T05:41:28;17.40;99.90
7331;DHT22;3706;49.198;7.064;2023-07-28T05:43:55;17.40;99.90
7331;DHT22;3706;49.198;7.064;2023-07-28T05:46:23;17.40;99.90
7331;DHT22;3706;49.198;7.064;2023-07-28T05:48:50;17.40;99.90
7331;DHT22;3706;49.198;7.064;2023-07-28T05:51:17;17.40;99.90
7331;DHT22;3706;49.198;7.064;2023-07-28T05:53:44;17.40;99.90
7331;DHT22;3706;49.198;7.064;2023-07-28T05:56:11;17.40;99.90
7331;DHT22;3706;49.198;7.064;2023-07-28T05:58:38;17.40;99.90
7331;DHT22;3706;49.198;7.064;2023-07-28T06:01:05;17.50;99.90
7331;DHT22;3706;49.198;7.064;2023-07-28T06:03:33;17.50;99.90
7331;DHT22;3706;49.198;7.064;2023-07-28T06:06:00;17.50;99.90
7331;DHT22;3706;49.198;7.064;2023-07-28T06:08:28;17.60;99.90
7331;DHT22;3706;49.198;7.064;2023-07-28T06:10:55;17.60;99.90
7331;DHT22;3706;49.198;7.064;2023-07-28T06:13:22;17.70;99.90
7331;DHT22;3706;49.198;7.064;2023-07-28T06:15:49;17.70;99.90
7331;DHT22;3706;49.198;7.064;2023-07-28T06:18:15;17.80;99.90
7331;DHT22;3706;49.198;7.064;2023-07-28T06:20:44;17.80;99.90
7331;DHT22;3706;49.198;7.064;2023-07-28T06:23:11;17.90;99.90
7331;DHT22;3706;49.198;7.064;2023-07-28T06:25:38;17.90;99.90
7331;DHT22;3706;49.198;7.064;2023-07-28T06:28:09;17.90;99.90
7331;DHT22;3706;49.198;7.064;2023-07-28T06:30:36;18.00;99.90
7331;DHT22;3706;49.198;7.064;2023-07-28T06:33:05;18.00;99.90
7331;DHT22;3706;49.198;7.064;2023-07-28T06:35:32;18.00;99.90
7331;DHT22;3706;49.198;7.064;2023-07-28T06:38:01;18.10;99.90
7331;DHT22;3706;49.198;7.064;2023-07-28T06:40:28;18.10;99.90
7331;DHT22;3706;49.198;7.064;2023-07-28T06:42:55;18.10;99.90
7331;DHT22;3706;49.198;7.064;2023-07-28T06:45:22;18.20;99.90
7331;DHT22;3706;49.198;7.064;2023-07-28T06:47:49;18.20;99.90
7331;DHT22;3706;49.198;7.064;2023-07-28T06:50:17;18.20;99.90
7331;DHT22;3706;49.198;7.064;2023-07-28T06:52:44;18.20;99.90
7331;DHT22;3706;49.198;7.064;2023-07-28T06:55:12;18.20;99.90
7331;DHT22;3706;49.198;7.064;2023-07-28T06:57:39;18.30;99.90
7331;DHT22;3706;49.198;7.064;2023-07-28T07:00:07;18.30;99.90
7331;DHT22;3706;49.198;7.064;2023-07-28T07:02:35;18.40;99.90
7331;DHT22;3706;49.198;7.064;2023-07-28T07:05:02;18.40;99.90
7331;DHT22;3706;49.198;7.064;2023-07-28T07:07:30;18.50;99.90
7331;DHT22;3706;49.198;7.064;2023-07-28T07:09:57;18.50;99.90
7331;DHT22;3706;49.198;7.064;2023-07-28T07:12:26;18.50;99.90
7331;DHT22;3706;49.198;7.064;2023-07-28T07:14:53;18.60;99.90
7331;DHT22;3706;49.198;7.064;2023-07-28T07:17:20;18.70;99.90
7331;DHT22;3706;49.198;7.064;2023-07-28T07:19:47;18.70;99.90
7331;DHT22;3706;49.198;7.064;2023-07-28T07:22:14;18.90;99.90
7331;DHT22;3706;49.198;7.064;2023-07-28T07:24:41;19.10;99.90
7331;DHT22;3706;49.198;7.064;2023-07-28T07:27:08;19.30;99.90
7331;DHT22;3706;49.198;7.064;2023-07-28T07:29:38;19.50;99.90
7331;DHT22;3706;49.198;7.064;2023-07-28T07:32:05;19.70;99.90
7331;DHT22;3706;49.198;7.064;2023-07-28T07:34:33;19.90;99.90
7331;DHT22;3706;49.198;7.064;2023-07-28T07:37:00;20.10;99.90
7331;DHT22;3706;49.198;7.064;2023-07-28T07:39:28;20.30;99.90
7331;DHT22;3706;49.198;7.064;2023-07-28T07:41:55;20.50;99.90
7331;DHT22;3706;49.198;7.064;2023-07-28T07:44:21;20.50;99.90
7331;DHT22;3706;49.198;7.064;2023-07-28T07:46:50;20.50;99.90
7331;DHT22;3706;49.198;7.064;2023-07-28T07:49:16;20.50;99.90
7331;DHT22;3706;49.198;7.064;2023-07-28T07:51:43;20.50;99.90
7331;DHT22;3706;49.198;7.064;2023-07-28T07:54:11;20.40;99.90
7331;DHT22;3706;49.198;7.064;2023-07-28T07:56:41;20.40;99.90
7331;DHT22;3706;49.198;7.064;2023-07-28T07:59:08;20.40;99.90
7331;DHT22;3706;49.198;7.064;2023-07-28T08:01:35;20.60;99.90
7331;DHT22;3706;49.198;7.064;2023-07-28T08:04:03;20.90;99.90
7331;DHT22;3706;49.198;7.064;2023-07-28T08:06:30;21.10;99.90
7331;DHT22;3706;49.198;7.064;2023-07-28T08:08:57;21.30;99.90
7331;DHT22;3706;49.198;7.064;2023-07-28T08:11:25;21.50;99.90
7331;DHT22;3706;49.198;7.064;2023-07-28T08:13:52;21.70;99.90
7331;DHT22;3706;49.198;7.064;2023-07-28T08:16:19;22.00;99.90
7331;DHT22;3706;49.198;7.064;2023-07-28T08:18:46;22.20;99.90
7331;DHT22;3706;49.198;7.064;2023-07-28T08:21:14;22.30;99.90
7331;DHT22;3706;49.198;7.064;2023-07-28T08:23:41;22.20;99.90
7331;DHT22;3706;49.198;7.064;2023-07-28T08:26:08;22.00;99.90
7331;DHT22;3706;49.198;7.064;2023-07-28T08:28:34;21.70;99.90
7331;DHT22;3706;49.198;7.064;2023-07-28T08:31:01;21.30;99.90
7331;DHT22;3706;49.198;7.064;2023-07-28T08:33:29;21.00;99.90
7331;DHT22;3706;49.198;7.064;2023-07-28T08:35:56;20.80;99.90
7331;DHT22;3706;49.198;7.064;2023-07-28T08:38:25;20.60;99.90
7331;DHT22;3706;49.198;7.064;2023-07-28T08:40:52;20.60;99.90
7331;DHT22;3706;49.198;7.064;2023-07-28T08:43:19;20.60;99.90
7331;DHT22;3706;49.198;7.064;2023-07-28T08:45:46;20.70;99.90
7331;DHT22;3706;49.198;7.064;2023-07-28T08:48:13;21.00;99.90
7331;DHT22;3706;49.198;7.064;2023-07-28T08:50:40;21.30;99.90
7331;DHT22;3706;49.198;7.064;2023-07-28T08:53:07;21.50;99.90
7331;DHT22;3706;49.198;7.064;2023-07-28T08:55:35;21.50;99.90
7331;DHT22;3706;49.198;7.064;2023-07-28T08:58:14;21.60;99.90
7331;DHT22;3706;49.198;7.064;2023-07-28T09:00:41;21.70;99.90
7331;DHT22;3706;49.198;7.064;2023-07-28T09:03:09;21.90;99.90
7331;DHT22;3706;49.198;7.064;2023-07-28T09:05:37;21.90;99.90
7331;DHT22;3706;49.198;7.064;2023-07-28T09:08:06;21.80;99.90
7331;DHT22;3706;49.198;7.064;2023-07-28T09:10:41;21.80;99.90
7331;DHT22;3706;49.198;7.064;2023-07-28T09:13:09;21.60;99.90
7331;DHT22;3706;49.198;7.064;2023-07-28T09:15:38;21.50;99.90
7331;DHT22;3706;49.198;7.064;2023-07-28T09:18:08;21.30;99.90
7331;DHT22;3706;49.198;7.064;2023-07-28T09:20:36;21.20;99.90
7331;DHT22;3706;49.198;7.064;2023-07-28T09:23:04;21.10;99.90
7331;DHT22;3706;49.198;7.064;2023-07-28T09:25:33;21.10;99.90
7331;DHT22;3706;49.198;7.064;2023-07-28T09:28:02;21.00;99.90
7331;DHT22;3706;49.198;7.064;2023-07-28T09:30:46;21.10;99.90
7331;DHT22;3706;49.198;7.064;2023-07-28T09:33:13;21.10;99.90
7331;DHT22;3706;49.198;7.064;2023-07-28T09:35:50;21.20;99.90
7331;DHT22;3706;49.198;7.064;2023-07-28T09:38:19;21.10;99.90
7331;DHT22;3706;49.198;7.064;2023-07-28T09:40:46;21.10;99.90
7331;DHT22;3706;49.198;7.064;2023-07-28T09:43:15;20.90;99.90
7331;DHT22;3706;49.198;7.064;2023-07-28T09:45:42;20.60;99.90
7331;DHT22;3706;49.198;7.064;2023-07-28T09:48:10;20.40;99.90
7331;DHT22;3706;49.198;7.064;2023-07-28T09:50:40;20.40;99.90
7331;DHT22;3706;49.198;7.064;2023-07-28T09:53:09;20.30;99.90
7331;DHT22;3706;49.198;7.064;2023-07-28T09:55:38;20.20;99.90
7331;DHT22;3706;49.198;7.064;2023-07-28T09:58:09;20.00;99.90
7331;DHT22;3706;49.198;7.064;2023-07-28T10:00:38;19.90;99.90
7331;DHT22;3706;49.198;7.064;2023-07-28T10:03:07;19.70;99.90
7331;DHT22;3706;49.198;7.064;2023-07-28T10:05:34;19.60;99.90
7331;DHT22;3706;49.198;7.064;2023-07-28T10:08:03;19.40;99.90
7331;DHT22;3706;49.198;7.064;2023-07-28T10:10:31;19.30;99.90
7331;DHT22;3706;49.198;7.064;2023-07-28T10:12:59;19.20;99.90
7331;DHT22;3706;49.198;7.064;2023-07-28T10:15:31;19.20;99.90
7331;DHT22;3706;49.198;7.064;2023-07-28T10:17:59;19.20;99.90
7331;DHT22;3706;49.198;7.064;2023-07-28T10:20:27;19.20;99.90
7331;DHT22;3706;49.198;7.064;2023-07-28T10:23:01;19.20;99.90
7331;DHT22;3706;49.198;7.064;2023-07-28T10:25:28;19.20;99.90
7331;DHT22;3706;49.198;7.064;2023-07-28T10:27:55;19.20;99.90
7331;DHT22;3706;49.198;7.064;2023-07-28T10:30:22;19.20;99.90
7331;DHT22;3706;49.198;7.064;2023-07-28T10:32:49;19.20;99.90
7331;DHT22;3706;49.198;7.064;2023-07-28T10:35:26;19.30;99.90
7331;DHT22;3706;49.198;7.064;2023-07-28T10:37:54;19.40;99.90
7331;DHT22;3706;49.198;7.064;2023-07-28T10:40:27;19.40;99.90
7331;DHT22;3706;49.198;7.064;2023-07-28T10:42:55;19.40;99.90
7331;DHT22;3706;49.198;7.064;2023-07-28T10:45:23;19.40;99.90
7331;DHT22;3706;49.198;7.064;2023-07-28T10:47:52;19.40;99.90
7331;DHT22;3706;49.198;7.064;2023-07-28T10:50:22;19.30;99.90
7331;DHT22;3706;49.198;7.064;2023-07-28T10:52:50;19.30;99.90
7331;DHT22;3706;49.198;7.064;2023-07-28T10:55:19;19.30;99.90
7331;DHT22;3706;49.198;7.064;2023-07-28T10:57:49;19.20;99.90
7331;DHT22;3706;49.198;7.064;2023-07-28T11:00:17;19.20;99.90
7331;DHT22;3706;49.198;7.064;2023-07-28T11:02:45;19.20;99.90
7331;DHT22;3706;49.198;7.064;2023-07-28T11:05:19;19.30;99.90
7331;DHT22;3706;49.198;7.064;2023-07-28T11:07:49;19.50;99.90
7331;DHT22;3706;49.198;7.064;2023-07-28T11:10:16;19.60;99.90
7331;DHT22;3706;49.198;7.064;2023-07-28T11:12:44;19.70;99.90
7331;DHT22;3706;49.198;7.064;2023-07-28T11:15:13;19.80;99.90
7331;DHT22;3706;49.198;7.064;2023-07-28T11:17:41;20.00;99.90
7331;DHT22;3706;49.198;7.064;2023-07-28T11:20:15;20.30;99.90
7331;DHT22;3706;49.198;7.064;2023-07-28T11:22:43;20.40;99.90
7331;DHT22;3706;49.198;7.064;2023-07-28T11:25:12;20.60;99.90
7331;DHT22;3706;49.198;7.064;2023-07-28T11:27:40;20.70;99.90
7331;DHT22;3706;49.198;7.064;2023-07-28T11:30:07;20.90;99.90
7331;DHT22;3706;49.198;7.064;2023-07-28T11:32:36;20.90;99.90
7331;DHT22;3706;49.198;7.064;2023-07-28T11:35:05;21.00;99.90
7331;DHT22;3706;49.198;7.064;2023-07-28T11:37:33;20.90;99.90
7331;DHT22;3706;49.198;7.064;2023-07-28T11:40:01;20.80;99.90
7331;DHT22;3706;49.198;7.064;2023-07-28T11:42:34;20.70;99.90
7331;DHT22;3706;49.198;7.064;2023-07-28T11:45:02;20.50;99.90
7331;DHT22;3706;49.198;7.064;2023-07-28T11:47:29;20.30;99.90
7331;DHT22;3706;49.198;7.064;2023-07-28T11:49:57;20.10;99.90
7331;DHT22;3706;49.198;7.064;2023-07-28T11:52:30;19.90;99.90
7331;DHT22;3706;49.198;7.064;2023-07-28T11:54:58;19.70;99.90
7331;DHT22;3706;49.198;7.064;2023-07-28T11:57:25;19.60;99.90
7331;DHT22;3706;49.198;7.064;2023-07-28T11:59:54;19.40;99.90
7331;DHT22;3706;49.198;7.064;2023-07-28T12:02:25;19.20;99.90
7331;DHT22;3706;49.198;7.064;2023-07-28T12:04:53;19.10;99.90
7331;DHT22;3706;49.198;7.064;2023-07-28T12:07:28;19.00;99.90
7331;DHT22;3706;49.198;7.064;2023-07-28T12:09:56;18.90;99.90
7331;DHT22;3706;49.198;7.064;2023-07-28T12:12:27;18.90;99.90
7331;DHT22;3706;49.198;7.064;2023-07-28T12:14:56;18.90;99.90
7331;DHT22;3706;49.198;7.064;2023-07-28T12:17:25;19.00;99.90
7331;DHT22;3706;49.198;7.064;2023-07-28T12:20:02;19.00;99.90
7331;DHT22;3706;49.198;7.064;2023-07-28T12:22:34;19.00;99.90
7331;DHT22;3706;49.198;7.064;2023-07-28T12:25:01;19.20;99.90
7331;DHT22;3706;49.198;7.064;2023-07-28T12:27:28;19.30;99.90
7331;DHT22;3706;49.198;7.064;2023-07-28T12:29:56;19.40;99.90
7331;DHT22;3706;49.198;7.064;2023-07-28T12:32:23;19.50;99.90
7331;DHT22;3706;49.198;7.064;2023-07-28T12:34:51;19.70;99.90
7331;DHT22;3706;49.198;7.064;2023-07-28T12:37:18;19.90;99.90
7331;DHT22;3706;49.198;7.064;2023-07-28T12:39:46;20.00;99.90
7331;DHT22;3706;49.198;7.064;2023-07-28T12:42:14;20.20;99.90
7331;DHT22;3706;49.198;7.064;2023-07-28T12:44:42;20.30;99.90
7331;DHT22;3706;49.198;7.064;2023-07-28T12:47:10;20.30;99.90
7331;DHT22;3706;49.198;7.064;2023-07-28T12:49:37;20.40;99.90
7331;DHT22;3706;49.198;7.064;2023-07-28T12:52:05;20.50;99.90
7331;DHT22;3706;49.198;7.064;2023-07-28T12:54:33;20.50;99.90
7331;DHT22;3706;49.198;7.064;2023-07-28T12:57:00;20.50;99.90
7331;DHT22;3706;49.198;7.064;2023-07-28T12:59:27;20.50;99.90
7331;DHT22;3706;49.198;7.064;2023-07-28T13:01:55;20.40;99.90
7331;DHT22;3706;49.198;7.064;2023-07-28T13:04:23;20.30;99.90
7331;DHT22;3706;49.198;7.064;2023-07-28T13:06:50;20.00;99.90
7331;DHT22;3706;49.198;7.064;2023-07-28T13:09:17;19.80;99.90
7331;DHT22;3706;49.198;7.064;2023-07-28T13:11:44;19.50;99.90
7331;DHT22;3706;49.198;7.064;2023-07-28T13:14:11;19.40;99.90
7331;DHT22;3706;49.198;7.064;2023-07-28T13:16:37;19.20;99.90
7331;DHT22;3706;49.198;7.064;2023-07-28T13:19:04;19.10;99.90
7331;DHT22;3706;49.198;7.064;2023-07-28T13:21:33;19.10;99.90
7331;DHT22;3706;49.198;7.064;2023-07-28T13:24:00;19.10;99.90
7331;DHT22;3706;49.198;7.064;2023-07-28T13:26:27;19.10;99.90
7331;DHT22;3706;49.198;7.064;2023-07-28T13:28:54;19.10;99.90
7331;DHT22;3706;49.198;7.064;2023-07-28T13:31:22;19.20;99.90
7331;DHT22;3706;49.198;7.064;2023-07-28T13:33:49;19.20;99.90
7331;DHT22;3706;49.198;7.064;2023-07-28T13:36:16;19.30;99.90
7331;DHT22;3706;49.198;7.064;2023-07-28T13:38:44;19.40;99.90
7331;DHT22;3706;49.198;7.064;2023-07-28T13:41:11;19.40;99.90
7331;DHT22;3706;49.198;7.064;2023-07-28T13:43:38;19.40;99.90
7331;DHT22;3706;49.198;7.064;2023-07-28T13:46:06;19.40;99.90
7331;DHT22;3706;49.198;7.064;2023-07-28T13:48:33;19.40;99.90
7331;DHT22;3706;49.198;7.064;2023-07-28T13:51:01;19.40;99.90
7331;DHT22;3706;49.198;7.064;2023-07-28T13:53:29;19.40;99.90
7331;DHT22;3706;49.198;7.064;2023-07-28T13:55:57;19.40;99.90
7331;DHT22;3706;49.198;7.064;2023-07-28T13:58:24;19.50;99.90
7331;DHT22;3706;49.198;7.064;2023-07-28T14:00:51;19.50;99.90
7331;DHT22;3706;49.198;7.064;2023-07-28T14:03:18;19.50;99.90
7331;DHT22;3706;49.198;7.064;2023-07-28T14:05:45;19.70;99.90
7331;DHT22;3706;49.198;7.064;2023-07-28T14:08:12;19.80;99.90
7331;DHT22;3706;49.198;7.064;2023-07-28T14:10:44;19.90;99.90
7331;DHT22;3706;49.198;7.064;2023-07-28T14:13:12;20.00;99.90
7331;DHT22;3706;49.198;7.064;2023-07-28T14:15:39;20.10;99.90
7331;DHT22;3706;49.198;7.064;2023-07-28T14:18:06;20.10;99.90
7331;DHT22;3706;49.198;7.064;2023-07-28T14:20:33;20.20;99.90
7331;DHT22;3706;49.198;7.064;2023-07-28T14:23:00;20.30;99.90
7331;DHT22;3706;49.198;7.064;2023-07-28T14:25:27;20.30;99.90
7331;DHT22;3706;49.198;7.064;2023-07-28T14:27:54;20.30;99.90
7331;DHT22;3706;49.198;7.064;2023-07-28T14:30:22;20.40;99.90
7331;DHT22;3706;49.198;7.064;2023-07-28T14:32:49;20.50;99.90
7331;DHT22;3706;49.198;7.064;2023-07-28T14:35:16;20.60;99.90
7331;DHT22;3706;49.198;7.064;2023-07-28T14:37:43;20.70;99.90
7331;DHT22;3706;49.198;7.064;2023-07-28T14:40:10;20.70;99.90
7331;DHT22;3706;49.198;7.064;2023-07-28T14:42:37;20.70;99.90
7331;DHT22;3706;49.198;7.064;2023-07-28T14:45:06;20.80;99.90
7331;DHT22;3706;49.198;7.064;2023-07-28T14:47:34;20.80;99.90
7331;DHT22;3706;49.198;7.064;2023-07-28T14:50:01;20.90;99.90
7331;DHT22;3706;49.198;7.064;2023-07-28T14:52:28;20.90;99.90
7331;DHT22;3706;49.198;7.064;2023-07-28T14:54:55;21.20;99.90
7331;DHT22;3706;49.198;7.064;2023-07-28T14:57:22;21.40;99.90
7331;DHT22;3706;49.198;7.064;2023-07-28T14:59:49;21.70;99.90
7331;DHT22;3706;49.198;7.064;2023-07-28T15:02:15;22.00;99.90
7331;DHT22;3706;49.198;7.064;2023-07-28T15:04:44;22.50;99.90
7331;DHT22;3706;49.198;7.064;2023-07-28T15:07:11;22.90;99.90
7331;DHT22;3706;49.198;7.064;2023-07-28T15:09:39;23.30;99.90
7331;DHT22;3706;49.198;7.064;2023-07-28T15:12:06;23.50;99.90
7331;DHT22;3706;49.198;7.064;2023-07-28T15:14:33;23.70;99.90
7331;DHT22;3706;49.198;7.064;2023-07-28T15:17:00;23.70;99.90
7331;DHT22;3706;49.198;7.064;2023-07-28T15:19:27;23.60;99.90
7331;DHT22;3706;49.198;7.064;2023-07-28T15:21:55;23.50;99.90
7331;DHT22;3706;49.198;7.064;2023-07-28T15:24:23;23.40;99.90
7331;DHT22;3706;49.198;7.064;2023-07-28T15:26:50;23.20;99.90
7331;DHT22;3706;49.198;7.064;2023-07-28T15:29:18;23.10;99.90
7331;DHT22;3706;49.198;7.064;2023-07-28T15:31:45;23.00;99.90
7331;DHT22;3706;49.198;7.064;2023-07-28T15:34:11;22.90;99.90
7331;DHT22;3706;49.198;7.064;2023-07-28T15:36:38;22.80;99.90
7331;DHT22;3706;49.198;7.064;2023-07-28T15:39:07;22.80;99.90
7331;DHT22;3706;49.198;7.064;2023-07-28T15:41:34;22.90;99.90
7331;DHT22;3706;49.198;7.064;2023-07-28T15:44:01;23.00;99.90
7331;DHT22;3706;49.198;7.064;2023-07-28T15:46:27;23.00;99.90
7331;DHT22;3706;49.198;7.064;2023-07-28T15:48:54;23.00;99.90
7331;DHT22;3706;49.198;7.064;2023-07-28T15:51:21;23.00;99.90
7331;DHT22;3706;49.198;7.064;2023-07-28T15:53:48;23.10;99.90
7331;DHT22;3706;49.198;7.064;2023-07-28T15:56:16;23.20;99.90
7331;DHT22;3706;49.198;7.064;2023-07-28T15:58:43;23.30;99.90
7331;DHT22;3706;49.198;7.064;2023-07-28T16:01:10;23.40;99.90
7331;DHT22;3706;49.198;7.064;2023-07-28T16:03:37;23.60;99.90
7331;DHT22;3706;49.198;7.064;2023-07-28T16:06:04;23.80;99.90